tititudorancea.com
Station Historical Data
Daily Summary for March 22, 2018 Units:  Metric    English   Both
« Previous Day
Next Day »
Daily Weekly Monthly Yearly Custom
  High: Low: Average:
Temperature: -17.8 °C 10.9 °C 19.1 °C
Dew Point: -17.8 °C 8.1 °C 9.4 °C
Humidity: Humidity % 37 % 56 %
Wind Speed: 0 km/h 0 km/h 6.3 km/h
Wind Gust: 0 km/h - -
Wind:- - East
Pressure: 0 hPa 1018.5 hPa -
Precipitation: 0 mm    
Historical Graphs
 
 
Ararat weather Find more about Weather in Ararat, AU


 



 


Tabular Data for March 22, 2018
Time Temperature Dew Point Pressure Wind Wind Speed Wind Gust Humidity Rainfall Rate (Hourly)
-17.8 °C -17.8 °C 0 hPa Calm     Humidity % 0 mm
00:03 14.4 °C 9.2 °C 1022.2 hPa North 8.2 km/h 12.9 km/h 71 % 0 mm
00:08 14.4 °C 9.2 °C 1022.2 hPa North 6.3 km/h 16.7 km/h 71 % 0 mm
00:13 14.4 °C 9.2 °C 1022.2 hPa South 7.4 km/h 9.3 km/h 71 % 0 mm
00:18 14.3 °C 9.3 °C 1022.2 hPa SSE 6.6 km/h 11.3 km/h 72 % 0 mm
00:23 14.3 °C 9.3 °C 1022.2 hPa SSE 11.3 km/h 18.5 km/h 72 % 0 mm
00:28 14.2 °C 9.2 °C 1022.2 hPa SSE 4.8 km/h 9.3 km/h 72 % 0 mm
00:33 14.2 °C 9.2 °C 1022.2 hPa SSE 5 km/h 9.3 km/h 72 % 0 mm
00:38 14.1 °C 9.3 °C 1022.2 hPa SSE 9 km/h 11.1 km/h 73 % 0 mm
00:43 14.1 °C 9.3 °C 1022.2 hPa SSE 8.2 km/h 14.8 km/h 73 % 0 mm
00:48 14.1 °C 9.3 °C 1022.2 hPa SSE 5 km/h 8 km/h 73 % 0 mm
00:53 14 °C 9.2 °C 1022.2 hPa SSE 8.7 km/h 8.7 km/h 73 % 0 mm
00:58 14 °C 9.2 °C 1022.2 hPa SSE 6.1 km/h 9.3 km/h 73 % 0 mm
01:03 13.9 °C 9.4 °C 1022.2 hPa SSE 9 km/h 13 km/h 74 % 0 mm
01:08 13.9 °C 9.4 °C 1022.2 hPa SSE 4.2 km/h 13 km/h 74 % 0 mm
01:13 13.9 °C 9.3 °C 1022.2 hPa SSE 5.6 km/h 9.3 km/h 74 % 0 mm
01:18 13.8 °C 9.3 °C 1022.2 hPa SSE 3.7 km/h 11.3 km/h 74 % 0 mm
01:23 13.8 °C 9.2 °C 1022.2 hPa SSE 3.1 km/h 8 km/h 74 % 0 mm
01:28 13.7 °C 9.2 °C 1022.2 hPa SSE 3.5 km/h 7.4 km/h 74 % 0 mm
01:33 13.7 °C 9.3 °C 1022.2 hPa North 2.7 km/h 7.4 km/h 75 % 0 mm
01:38 13.6 °C 9.3 °C 1022.2 hPa SSE 4.3 km/h 5.6 km/h 75 % 0 mm
01:43 13.5 °C 9.2 °C 1022.6 hPa North 0.8 km/h 5.6 km/h 75 % 0 mm
01:48 13.4 °C 9.1 °C 1022.6 hPa SSE 1.3 km/h 6.4 km/h 75 % 0 mm
01:53 13.3 °C 9.2 °C 1022.6 hPa SSE 1.6 km/h 3.7 km/h 76 % 0 mm
01:58 13.2 °C 9.1 °C 1022.6 hPa North 0.8 km/h 7.4 km/h 76 % 0 mm
02:00 13.2 °C 8.8 °C 1022.6 hPa SSE 0.2 km/h 3.2 km/h 75 % 0 mm
02:05 13 °C 9.1 °C 1022.6 hPa SSE 0.6 km/h 3.7 km/h 77 % 0 mm
02:10 12.8 °C 8.9 °C 1022.2 hPa SSE 4.7 km/h 5.6 km/h 77 % 0 mm
02:15 12.7 °C 8.9 °C 1022.6 hPa Calm   1.9 km/h 78 % 0 mm
02:20 12.5 °C 8.8 °C 1022.6 hPa SSE 0.5 km/h 1.9 km/h 78 % 0 mm
02:25 12.3 °C 8.8 °C 1022.6 hPa Calm     79 % 0 mm
02:30 12.2 °C 8.9 °C 1022.2 hPa Calm     80 % 0 mm
02:35 12.1 °C 8.7 °C 1022.6 hPa SSE 1.9 km/h 3.7 km/h 80 % 0 mm
02:40 12.1 °C 8.9 °C 1022.6 hPa SSE 0.8 km/h 1.6 km/h 81 % 0 mm
02:45 12.1 °C 8.9 °C 1022.6 hPa SSE 2.4 km/h 3.7 km/h 81 % 0 mm
02:50 12.1 °C 8.9 °C 1022.6 hPa Calm     81 % 0 mm
02:55 12.1 °C 9.1 °C 1022.6 hPa Calm     82 % 0 mm
03:00 12 °C 8.8 °C 1022.6 hPa Calm     81 % 0 mm
03:05 11.9 °C 8.8 °C 1022.2 hPa Calm     81 % 0 mm
03:10 11.9 °C 8.9 °C 1022.2 hPa Calm     82 % 0 mm
03:15 11.8 °C 8.8 °C 1022.2 hPa Calm     82 % 0 mm
03:20 11.7 °C 8.7 °C 1022.6 hPa Calm     82 % 0 mm
03:25 11.6 °C 8.8 °C 1022.6 hPa Calm     83 % 0 mm
03:30 11.5 °C 8.7 °C 1022.6 hPa Calm     83 % 0 mm
03:35 11.4 °C 8.7 °C 1022.6 hPa Calm     83 % 0 mm
03:40 11.3 °C 8.6 °C 1022.2 hPa Calm     83 % 0 mm
03:45 11.2 °C 8.4 °C 1022.2 hPa Calm     83 % 0 mm
03:50 11.1 °C 8.3 °C 1022.2 hPa Calm     83 % 0 mm
03:55 11 °C 8.4 °C 1022.2 hPa Calm     84 % 0 mm
04:00 10.9 °C 8.5 °C 1022.2 hPa Calm     85 % 0 mm
04:05 10.9 °C 8.5 °C 1022.2 hPa Calm     85 % 0 mm
04:10 11 °C 8.6 °C 1022.2 hPa Calm     85 % 0 mm
04:15 11 °C 8.6 °C 1022.2 hPa Calm     85 % 0 mm
04:20 11 °C 8.6 °C 1022.2 hPa Calm     85 % 0 mm
04:25 11.1 °C 8.6 °C 1022.2 hPa Calm     85 % 0 mm
04:30 11.2 °C 8.7 °C 1022.2 hPa Calm     85 % 0 mm
04:35 11.2 °C 8.7 °C 1022.2 hPa Calm     85 % 0 mm
04:40 11.2 °C 8.6 °C 1022.2 hPa Calm     84 % 0 mm
04:45 11.2 °C 8.7 °C 1022.2 hPa SSE 1.9 km/h 3.7 km/h 85 % 0 mm
04:50 11.2 °C 8.8 °C 1022.2 hPa SSE 2.1 km/h 5.6 km/h 85 % 0 mm
04:55 11.5 °C 9.1 °C 1022.2 hPa North 3.2 km/h 5.6 km/h 85 % 0 mm
05:00 11.8 °C 9.2 °C 1022.2 hPa SSE 0.2 km/h 1.9 km/h 84 % 0 mm
05:05 12.3 °C 9.3 °C 1022.2 hPa Calm   1.9 km/h 82 % 0 mm
05:10 12.5 °C 9.2 °C 1022.2 hPa North 1 km/h 3.7 km/h 80 % 0 mm
05:15 12.7 °C 9.2 °C 1022.2 hPa SSE 2.1 km/h 3.7 km/h 79 % 0 mm
05:20 13 °C 9.3 °C 1022.2 hPa SSE 1.9 km/h 3.7 km/h 78 % 0 mm
05:25 13.4 °C 9.2 °C 1022.2 hPa SSE 4.8 km/h 5.6 km/h 76 % 0 mm
05:30 13.7 °C 9.1 °C 1022.6 hPa SSE 6 km/h 7.4 km/h 74 % 0 mm
05:35 13.9 °C 9.1 °C 1022.6 hPa SSE 4.7 km/h 8 km/h 73 % 0 mm
05:40 14.1 °C 9.1 °C 1022.2 hPa SSE 6.8 km/h 9.3 km/h 72 % 0 mm
05:45 14.3 °C 9.1 °C 1022.6 hPa SSE 2.1 km/h 3.7 km/h 71 % 0 mm
05:50 14.3 °C 8.9 °C 1022.6 hPa SSE 2.7 km/h 7.4 km/h 70 % 0 mm
05:55 14.3 °C 8.9 °C 1022.6 hPa SSE 3.9 km/h 6.4 km/h 70 % 0 mm
06:00 14.3 °C 8.9 °C 1022.6 hPa SE 6.1 km/h 7.4 km/h 70 % 0 mm
06:05 14.3 °C 8.7 °C 1022.6 hPa SE 4.8 km/h 7.4 km/h 69 % 0 mm
06:10 14.3 °C 8.7 °C 1022.6 hPa SE 0.5 km/h 3.7 km/h 69 % 0 mm
06:15 14.3 °C 8.7 °C 1022.6 hPa SE 3.1 km/h 5.6 km/h 69 % 0 mm
06:20 14.2 °C 8.6 °C 1022.6 hPa SE 3.4 km/h 6.4 km/h 69 % 0 mm
06:25 14.2 °C 8.6 °C 1022.6 hPa Calm   3.7 km/h 69 % 0 mm
06:30 14.3 °C 8.7 °C 1022.6 hPa SE 5 km/h 6.4 km/h 69 % 0 mm
06:35 14.3 °C 8.5 °C 1022.6 hPa SE 5.5 km/h 8 km/h 68 % 0 mm
06:40 14.3 °C 8.5 °C 1022.6 hPa SE 5.5 km/h 8 km/h 68 % 0 mm
06:45 14.3 °C 8.5 °C 1022.9 hPa SE 6 km/h 7.4 km/h 68 % 0 mm
06:50 14.5 °C 8.7 °C 1022.9 hPa ESE 6.9 km/h 9.3 km/h 68 % 0 mm
06:55 14.6 °C 8.5 °C 1022.9 hPa ESE 3.9 km/h 8 km/h 67 % 0 mm
07:00 14.6 °C 8.5 °C 1022.9 hPa ESE 1.4 km/h 5.6 km/h 67 % 0 mm
07:05 14.4 °C 8.4 °C 1022.9 hPa ESE 3.7 km/h 5.6 km/h 67 % 0 mm
07:10 14.4 °C 8.3 °C 1022.9 hPa ESE 3.4 km/h 6.4 km/h 67 % 0 mm
07:15 14.3 °C 8.2 °C 1022.9 hPa ESE 3.7 km/h 6.4 km/h 67 % 0 mm
07:20 14.2 °C 8.1 °C 1022.9 hPa ESE 3.4 km/h 7.4 km/h 67 % 0 mm
07:25 14.1 °C 8.3 °C 1022.9 hPa ESE 5 km/h 5.6 km/h 68 % 0 mm
07:30 14 °C 8.2 °C 1023.2 hPa ESE 3.5 km/h 5.6 km/h 68 % 0 mm
07:35 13.9 °C 8.1 °C 1023.2 hPa ESE 5.1 km/h 7.4 km/h 68 % 0 mm
07:40 14 °C 8.2 °C 1023.2 hPa ESE 3.1 km/h 9.3 km/h 68 % 0 mm
07:45 14.2 °C 8.4 °C 1023.2 hPa ESE 4.8 km/h 8 km/h 68 % 0 mm
07:50 14.4 °C 8.3 °C 1023.2 hPa ESE 2.3 km/h 2.3 km/h 67 % 0 mm
07:55 14.6 °C 8.3 °C 1023.2 hPa ESE 5.1 km/h 7.4 km/h 66 % 0 mm
08:00 14.8 °C 8.5 °C 1023.2 hPa ESE 2.7 km/h 5.6 km/h 66 % 0 mm
08:05 15 °C 8.4 °C 1023.2 hPa ESE 2.9 km/h 6.4 km/h 65 % 0 mm
08:10 15.2 °C 8.4 °C 1023.6 hPa ESE 2.9 km/h 6.4 km/h 64 % 0 mm
08:16 15.3 °C 8.5 °C 1023.2 hPa ESE 2.1 km/h 5.6 km/h 64 % 0 mm
08:21 15.4 °C 8.4 °C 1023.2 hPa ESE 4.2 km/h 5.6 km/h 63 % 0 mm
08:26 15.6 °C 8.3 °C 1023.2 hPa ESE 6.4 km/h 7.4 km/h 62 % 0 mm
08:31 15.8 °C 8.6 °C 1023.2 hPa ESE 3.7 km/h 6.4 km/h 62 % 0 mm
08:36 16.2 °C 8.4 °C 1023.2 hPa ESE 5.3 km/h 7.4 km/h 60 % 0 mm
08:41 16.4 °C 8.6 °C 1023.2 hPa ESE 3.5 km/h 9.7 km/h 60 % 0 mm
08:46 16.7 °C 8.3 °C 1023.2 hPa ESE 7.4 km/h 9.3 km/h 58 % 0 mm
08:51 16.8 °C 8.3 °C 1023.2 hPa ESE 8.5 km/h 11.1 km/h 57 % 0 mm
08:56 17.1 °C 8.3 °C 1023.6 hPa ESE 4.2 km/h 6.4 km/h 56 % 0 mm
09:01 17.4 °C 8.3 °C 1023.6 hPa East 5.8 km/h 7.4 km/h 55 % 0 mm
09:06 17.7 °C 8.2 °C 1023.6 hPa NE 7.6 km/h 13 km/h 54 % 0 mm
09:11 17.9 °C 8.4 °C 1023.6 hPa NNE 6 km/h 11.1 km/h 54 % 0 mm
09:16 18.1 °C 8.1 °C 1023.6 hPa NNE 11.4 km/h 22.5 km/h 52 % 0 mm
09:21 18.2 °C 8.2 °C 1023.6 hPa ENE 5.1 km/h 11.1 km/h 52 % 0 mm
09:26 18.5 °C 8.2 °C 1023.6 hPa NE 7.1 km/h 13 km/h 51 % 0 mm
09:31 18.6 °C 8.2 °C 1023.6 hPa NNE 6.3 km/h 11.1 km/h 51 % 0 mm
09:36 18.7 °C 8.1 °C 1023.6 hPa NNE 7.1 km/h 18.5 km/h 50 % 0 mm
09:41 18.8 °C 8.2 °C 1023.6 hPa NE 15.1 km/h 20.4 km/h 50 % 0 mm
09:46 19.1 °C 8.1 °C 1023.2 hPa NNE 20.3 km/h 29.6 km/h 49 % 0 mm
09:51 19.3 °C 8.3 °C 1023.2 hPa NNE 16.3 km/h 22.2 km/h 49 % 0 mm
09:56 19.3 °C 8.3 °C 1023.2 hPa NE 7.9 km/h 16.1 km/h 49 % 0 mm
10:01 19.3 °C 8.1 °C 1023.2 hPa NNE 9.3 km/h 18.5 km/h 48 % 0 mm
10:06 19.6 °C 8.3 °C 1023.2 hPa NE 14.5 km/h 24.1 km/h 48 % 0 mm
10:11 19.8 °C 8.4 °C 1023.2 hPa NNE 10.5 km/h 18.5 km/h 48 % 0 mm
10:16 19.8 °C 8.4 °C 1023.2 hPa NE 14.3 km/h 18.5 km/h 48 % 0 mm
10:21 19.8 °C 8.5 °C 1022.9 hPa NE 7.9 km/h 11.3 km/h 48 % 0 mm
10:26 20.1 °C 8.4 °C 1022.9 hPa NE 10.9 km/h 18.5 km/h 47 % 0 mm
10:31 20 °C 8.3 °C 1022.9 hPa NE 11.4 km/h 16.7 km/h 47 % 0 mm
10:36 20.1 °C 8.4 °C 1022.9 hPa ENE 11.9 km/h 20.4 km/h 47 % 0 mm
10:41 20.3 °C 8.7 °C 1022.9 hPa NNE 15.3 km/h 22.2 km/h 47 % 0 mm
10:46 20.6 °C 8.6 °C 1022.9 hPa NNE 9 km/h 18.5 km/h 46 % 0 mm
10:51 20.8 °C 8.8 °C 1022.9 hPa NNE 13.8 km/h 25.9 km/h 46 % 0 mm
10:56 20.6 °C 8.6 °C 1022.9 hPa NNE 10.1 km/h 18.5 km/h 46 % 0 mm
11:01 20.9 °C 8.5 °C 1022.9 hPa NNE 15.3 km/h 22.5 km/h 45 % 0 mm
11:06 21 °C 8.6 °C 1022.9 hPa NNE 10.5 km/h 20.4 km/h 45 % 0 mm
11:11 21.3 °C 8.9 °C 1022.9 hPa NNE 14.5 km/h 16.7 km/h 45 % 0 mm
11:16 21.4 °C 8.9 °C 1022.9 hPa NNE 13.4 km/h 18.5 km/h 45 % 0 mm
11:21 21.6 °C 9.1 °C 1022.6 hPa NNE 19 km/h 25.9 km/h 45 % 0 mm
11:26 21.5 °C 9.1 °C 1022.6 hPa NNE 9.8 km/h 20.4 km/h 45 % 0 mm
11:31 21.7 °C 9.2 °C 1022.6 hPa NNE 9.8 km/h 18.5 km/h 45 % 0 mm
11:36 21.8 °C 9.3 °C 1022.2 hPa NE 9 km/h 18.5 km/h 45 % 0 mm
11:41 22.1 °C 9.3 °C 1022.2 hPa North 12.1 km/h 18.5 km/h 44 % 0 mm
11:46 22.1 °C 9.2 °C 1022.2 hPa NNE 8.4 km/h 25.9 km/h 44 % 0 mm
11:51 22.1 °C 9.2 °C 1022.2 hPa East 8.7 km/h 24.1 km/h 44 % 0 mm
11:56 22.3 °C 9.4 °C 1021.9 hPa NNE 14.3 km/h 18.5 km/h 44 % 0 mm
12:01 22.4 °C 9.6 °C 1021.9 hPa ENE 20.8 km/h 29.6 km/h 44 % 0 mm
12:06 22.5 °C 9.6 °C 1021.9 hPa NNE 11.9 km/h 18.5 km/h 44 % 0 mm
12:11 22.7 °C 9.5 °C 1021.9 hPa NNE 8.5 km/h 13 km/h 43 % 0 mm
12:16 23.1 °C 9.8 °C 1021.9 hPa ENE 12.7 km/h 18.5 km/h 43 % 0 mm
12:21 23.1 °C 9.4 °C 1021.9 hPa NNE 9 km/h 18.5 km/h 42 % 0 mm
12:26 23.4 °C 9.7 °C 1021.6 hPa North 13.7 km/h 25.9 km/h 42 % 0 mm
12:31 23.4 °C 10.2 °C 1021.6 hPa NNW 16.4 km/h 22.2 km/h 43 % 0 mm
12:36 23.6 °C 10.3 °C 1021.6 hPa North 14.5 km/h 22.2 km/h 43 % 0 mm
12:41 23.6 °C 9.9 °C 1021.6 hPa NE 15.8 km/h 20.4 km/h 42 % 0 mm
12:46 23.7 °C 10.3 °C 1021.6 hPa NE 10 km/h 27.8 km/h 43 % 0 mm
12:51 24 °C 10.3 °C 1021.6 hPa NE 5.6 km/h 11.1 km/h 42 % 0 mm
12:56 24.1 °C 10.1 °C 1021.6 hPa NE 17.4 km/h 31.5 km/h 41 % 0 mm
13:01 23.9 °C 10.2 °C 1021.6 hPa NNE 16.7 km/h 29.6 km/h 42 % 0 mm
13:06 23.9 °C 10.2 °C 1021.6 hPa NE 14.5 km/h 22.2 km/h 42 % 0 mm
13:11 23.9 °C 10.2 °C 1021.2 hPa North 18.7 km/h 27.8 km/h 42 % 0 mm
13:16 24.1 °C 10.3 °C 1021.2 hPa NNE 14.5 km/h 27.8 km/h 42 % 0 mm
13:22 24.2 °C 10.4 °C 1021.2 hPa North 13.7 km/h 20.4 km/h 42 % 0 mm
13:27 24.3 °C 10.2 °C 1021.2 hPa NNE 12.9 km/h 22.2 km/h 41 % 0 mm
13:32 24.4 °C 10.3 °C 1021.2 hPa North 11.4 km/h 18.5 km/h 41 % 0 mm
13:37 24.7 °C 10.2 °C 1020.9 hPa NE 8.4 km/h 22.2 km/h 40 % 0 mm
13:42 24.8 °C 10.3 °C 1020.9 hPa NNE 12.2 km/h 16.7 km/h 40 % 0 mm
13:47 25.1 °C 10.2 °C 1020.9 hPa NE 18.2 km/h 25.9 km/h 39 % 0 mm
13:52 24.8 °C 10.3 °C 1020.9 hPa NE 8.2 km/h 12.9 km/h 40 % 0 mm
13:57 24.9 °C 10.3 °C 1020.5 hPa NNE 18.2 km/h 31.5 km/h 40 % 0 mm
14:02 25.2 °C 10.2 °C 1020.5 hPa NNE 15.9 km/h 24.1 km/h 39 % 0 mm
14:07 25.3 °C 10.4 °C 1020.5 hPa NNE 9.3 km/h 24.1 km/h 39 % 0 mm
14:12 25.4 °C 10.4 °C 1020.5 hPa NNE 15.8 km/h 27.8 km/h 39 % 0 mm
14:17 25.8 °C 10.8 °C 1020.2 hPa NNE 18.5 km/h 19.3 km/h 39 % 0 mm
14:22 25.8 °C 10.4 °C 1020.2 hPa NNE 6.1 km/h 14.8 km/h 38 % 0 mm
14:27 26 °C 10.6 °C 1020.2 hPa ENE 9.7 km/h 16.7 km/h 38 % 0 mm
14:32 26 °C 10.2 °C 1019.9 hPa NNE 17.4 km/h 24.1 km/h 37 % 0 mm
14:37 26.1 °C 10.6 °C 1019.9 hPa NNE 6.3 km/h 13 km/h 38 % 0 mm
14:42 26.6 °C 10.7 °C 1019.9 hPa NE 15 km/h 24.1 km/h 37 % 0 mm
14:47 26.3 °C 10.9 °C 1019.9 hPa NNE 8.5 km/h 13 km/h 38 % 0 mm
14:52 26.4 °C 10.6 °C 1019.9 hPa NE 9.5 km/h 22.2 km/h 37 % 0 mm
14:57 26.4 °C 10.5 °C 1019.9 hPa NE 9.2 km/h 13 km/h 37 % 0 mm
15:02 26.4 °C 10.6 °C 1019.9 hPa NNE 15.1 km/h 31.5 km/h 37 % 0 mm
15:07 26.4 °C 11 °C 1019.5 hPa NNW 13.5 km/h 24.1 km/h 38 % 0 mm
15:12 26.4 °C 10.5 °C 1019.5 hPa North 12.4 km/h 24.1 km/h 37 % 0 mm
15:17 26.4 °C 10.9 °C 1019.5 hPa North 7.6 km/h 14.8 km/h 38 % 0 mm
15:22 26.3 °C 10.4 °C 1019.5 hPa North 15.4 km/h 27.8 km/h 37 % 0 mm
15:27 26.6 °C 10.7 °C 1019.5 hPa North 11.6 km/h 20.4 km/h 37 % 0 mm
15:32 26.6 °C 10.7 °C 1019.5 hPa NNE 6.1 km/h 11.3 km/h 37 % 0 mm
15:37 26.4 °C 10.6 °C 1019.5 hPa North 12.4 km/h 27.8 km/h 37 % 0 mm
15:42 26.7 °C 10.8 °C 1019.5 hPa NE 14.8 km/h 22.2 km/h 37 % 0 mm
15:47 26.1 °C 10.3 °C 1019.5 hPa North 13.2 km/h 20.4 km/h 37 % 0 mm
15:52 25.6 °C 10.6 °C 1019.5 hPa NNE 10.5 km/h 18.5 km/h 39 % 0 mm
15:57 25.7 °C 10.7 °C 1019.5 hPa North 14.6 km/h 24.1 km/h 39 % 0 mm
16:02 25.8 °C 10.8 °C 1019.2 hPa North 11.7 km/h 18.5 km/h 39 % 0 mm
16:07 25.7 °C 10.7 °C 1019.2 hPa NNW 8.2 km/h 11.3 km/h 39 % 0 mm
16:12 25.6 °C 11 °C 1019.2 hPa NNW 5.3 km/h 9.3 km/h 40 % 0 mm
16:17 25.7 °C 10.7 °C 1019.2 hPa North 6.3 km/h 11.1 km/h 39 % 0 mm
16:22 26.1 °C 11.1 °C 1018.8 hPa North 15.8 km/h 22.2 km/h 39 % 0 mm
16:27 26.7 °C 10.8 °C 1019.2 hPa NNE 23.3 km/h 29.6 km/h 37 % 0 mm
16:32 26.4 °C 11 °C 1019.2 hPa NNE 12.1 km/h 20.4 km/h 38 % 0 mm
16:37 26.5 °C 10.6 °C 1019.2 hPa ENE 14 km/h 18.5 km/h 37 % 0 mm
16:42 26.3 °C 10.8 °C 1019.2 hPa NNE 14.6 km/h 24.1 km/h 38 % 0 mm
16:47 25.8 °C 10.4 °C 1019.2 hPa NNE 15.1 km/h 20.4 km/h 38 % 0 mm
16:52 25.6 °C 10.6 °C 1018.8 hPa NNE 10 km/h 14.8 km/h 39 % 0 mm
16:57 25.7 °C 10.7 °C 1018.8 hPa NNE 10.8 km/h 20.4 km/h 39 % 0 mm
17:02 25.9 °C 10.9 °C 1018.8 hPa NNE 5.8 km/h 18.5 km/h 39 % 0 mm
17:07 26.2 °C 10.7 °C 1018.8 hPa NNE 15.3 km/h 20.4 km/h 38 % 0 mm
17:12 26.1 °C 10.7 °C 1018.8 hPa NNE 8.4 km/h 13 km/h 38 % 0 mm
17:17 25.8 °C 10.4 °C 1018.8 hPa North 10.6 km/h 14.8 km/h 38 % 0 mm
17:22 25.4 °C 10.4 °C 1018.8 hPa North 13.2 km/h 16.7 km/h 39 % 0 mm
17:27 25.2 °C 10.2 °C 1018.8 hPa NNE 8.9 km/h 14.5 km/h 39 % 0 mm
17:32 25.2 °C 10.3 °C 1018.5 hPa NNE 7.2 km/h 13 km/h 39 % 0 mm
17:37 25.3 °C 10.4 °C 1018.5 hPa NNE 8.4 km/h 13 km/h 39 % 0 mm
17:42 25.5 °C 10.5 °C 1018.8 hPa NNE 8.7 km/h 11.1 km/h 39 % 0 mm
17:47 25.5 °C 10.5 °C 1018.5 hPa NNE 11.4 km/h 14.8 km/h 39 % 0 mm
17:52 25.6 °C 10.6 °C 1018.5 hPa NNE 7.9 km/h 16.7 km/h 39 % 0 mm
17:57 25.9 °C 10.1 °C 1018.5 hPa ENE 17.4 km/h 22.2 km/h 37 % 0 mm
18:02 25.8 °C 10.4 °C 1018.5 hPa NE 1.9 km/h 8 km/h 38 % 0 mm
18:07 25.8 °C 10.4 °C 1018.5 hPa NE 6.3 km/h 18.5 km/h 38 % 0 mm
18:12 25.7 °C 10.3 °C 1018.5 hPa NE 7.9 km/h 11.3 km/h 38 % 0 mm
18:17 25.6 °C 10.2 °C 1018.5 hPa NNE 12.1 km/h 18.5 km/h 38 % 0 mm
18:22 25.4 °C 10.4 °C 1018.5 hPa NE 1.8 km/h 9.3 km/h 39 % 0 mm
18:27 25.2 °C 10.2 °C 1018.5 hPa NNE 7.7 km/h 11.1 km/h 39 % 0 mm
18:32 25 °C 10.4 °C 1018.5 hPa NNE 6.4 km/h 12.9 km/h 40 % 0 mm
18:37 24.8 °C 10.3 °C 1018.5 hPa NNE 5.3 km/h 11.1 km/h 40 % 0 mm
18:42 24.8 °C 10.3 °C 1018.5 hPa NNE 4.2 km/h 11.1 km/h 40 % 0 mm
18:47 24.8 °C 10.3 °C 1018.5 hPa NNE 9.3 km/h 11.1 km/h 40 % 0 mm
18:52 24.8 °C 10.6 °C 1018.5 hPa North 4.3 km/h 14.8 km/h 41 % 0 mm
18:57 24.7 °C 10.9 °C 1018.5 hPa North 7.6 km/h 13 km/h 42 % 0 mm
19:02 24.6 °C 10.8 °C 1018.5 hPa NNE 4.7 km/h 9.3 km/h 42 % 0 mm
19:07 24.5 °C 10.7 °C 1018.5 hPa NNE 12.6 km/h 16.7 km/h 42 % 0 mm
19:12 24.3 °C 10.6 °C 1018.5 hPa North 7.7 km/h 11.1 km/h 42 % 0 mm
19:17 24.2 °C 10.8 °C 1018.5 hPa NNE 7.9 km/h 13 km/h 43 % 0 mm
19:22 24.1 °C 10.7 °C 1018.5 hPa NNE 3.9 km/h 9.3 km/h 43 % 0 mm
19:27 23.9 °C 10.6 °C 1018.5 hPa NNE 4 km/h 5.6 km/h 43 % 0 mm
19:32 23.7 °C 10.7 °C 1018.5 hPa NNE 0.3 km/h 5.6 km/h 44 % 0 mm
19:37 23.5 °C 10.6 °C 1018.5 hPa NNE 2.1 km/h 7.4 km/h 44 % 0 mm
19:42 23.3 °C 10.7 °C 1018.5 hPa NNE 1.4 km/h 5.6 km/h 45 % 0 mm
19:47 23.2 °C 10.6 °C 1018.5 hPa NNE 0.8 km/h 5.6 km/h 45 % 0 mm
19:52 23 °C 10.4 °C 1018.5 hPa NNE 1.3 km/h 3.7 km/h 45 % 0 mm
19:57 22.9 °C 10.3 °C 1018.5 hPa NNE 0.2 km/h 1.6 km/h 45 % 0 mm
20:02 22.7 °C 10.5 °C 1018.5 hPa NNE 1.6 km/h 5.6 km/h 46 % 0 mm
20:07 22.6 °C 10.3 °C 1018.5 hPa NNE 2.7 km/h 6.4 km/h 46 % 0 mm
20:12 22.4 °C 10.5 °C 1018.5 hPa NNE 0.8 km/h 3.7 km/h 47 % 0 mm
20:17 22.2 °C 10.4 °C 1018.5 hPa NNE 0.3 km/h 1.9 km/h 47 % 0 mm
20:22 22 °C 10.5 °C 1018.5 hPa NNE 0.8 km/h 3.7 km/h 48 % 0 mm
20:27 21.8 °C 10.3 °C 1018.5 hPa Calm   1.6 km/h 48 % 0 mm
20:32 21.7 °C 10.5 °C 1018.5 hPa NNE 1.9 km/h 3.7 km/h 49 % 0 mm
20:37 21.5 °C 10.3 °C 1018.5 hPa Calm     49 % 0 mm
20:42 21.3 °C 10.5 °C 1018.5 hPa Calm   1.9 km/h 50 % 0 mm
20:47 21.1 °C 10.6 °C 1018.5 hPa NNE 1.4 km/h 3.7 km/h 51 % 0 mm
20:52 20.9 °C 10.4 °C 1018.5 hPa NNE 1.6 km/h 3.7 km/h 51 % 0 mm
20:57 20.7 °C 10.4 °C 1018.8 hPa NNE 0.2 km/h 3.7 km/h 52 % 0 mm
21:02 20.5 °C 10.6 °C 1018.8 hPa NNE 1 km/h 3.2 km/h 53 % 0 mm
21:07 20.3 °C 10.4 °C 1018.8 hPa Calm     53 % 0 mm
21:12 20.1 °C 10.4 °C 1018.8 hPa Calm     54 % 0 mm
21:17 20 °C 10.4 °C 1018.8 hPa NNE 0.3 km/h 3.7 km/h 54 % 0 mm
21:22 19.9 °C 10.3 °C 1018.8 hPa NNE 1.3 km/h 3.7 km/h 54 % 0 mm
21:27 19.9 °C 10.6 °C 1018.8 hPa Calm     55 % 0 mm
21:32 19.9 °C 10.6 °C 1018.8 hPa NNE 2.7 km/h 5.6 km/h 55 % 0 mm
21:37 19.9 °C 10.3 °C 1019.2 hPa NNE 2.4 km/h 5.6 km/h 54 % 0 mm
21:42 19.9 °C 10.3 °C 1018.8 hPa NNE 3.1 km/h 5.6 km/h 54 % 0 mm
21:47 19.8 °C 10.3 °C 1018.8 hPa NNE 0.2 km/h 3.7 km/h 54 % 0 mm
21:52 19.7 °C 10.4 °C 1019.2 hPa NNE 2.4 km/h 3.7 km/h 55 % 0 mm
21:57 19.5 °C 10.2 °C 1018.8 hPa NNE 2.3 km/h 3.7 km/h 55 % 0 mm
22:02 19.4 °C 10.1 °C 1018.8 hPa NNE 3.4 km/h 5.6 km/h 55 % 0 mm
22:07 19.2 °C 10.2 °C 1019.2 hPa NNE 3.1 km/h 5.6 km/h 56 % 0 mm
22:12 19.2 °C 10.2 °C 1019.2 hPa NNE 3.4 km/h 5.6 km/h 56 % 0 mm
22:17 19.2 °C 10.2 °C 1019.2 hPa NNE 3.4 km/h 5.6 km/h 56 % 0 mm
22:22 19.3 °C 10 °C 1019.2 hPa NNE 4.8 km/h 5.6 km/h 55 % 0 mm
22:27 19.4 °C 10.2 °C 1019.2 hPa NNE 4.5 km/h 6.4 km/h 55 % 0 mm
22:32 19.5 °C 10.2 °C 1019.2 hPa NNE 3.4 km/h 5.6 km/h 55 % 0 mm
22:37 19.4 °C 10.2 °C 1019.2 hPa NNE 3.1 km/h 5.6 km/h 55 % 0 mm
22:42 19.4 °C 9.8 °C 1019.2 hPa NNE 3.2 km/h 5.6 km/h 54 % 0 mm
22:47 19.3 °C 9.7 °C 1019.2 hPa NNE 2.1 km/h 4.8 km/h 54 % 0 mm
22:52 19.1 °C 9.8 °C 1018.8 hPa Calm   5.6 km/h 55 % 0 mm
22:57 18.9 °C 9.7 °C 1018.8 hPa NNE 0.3 km/h 3.7 km/h 55 % 0 mm
23:02 18.8 °C 9.8 °C 1019.2 hPa Calm     56 % 0 mm
23:07 18.7 °C 9.8 °C 1019.2 hPa Calm   1.6 km/h 56 % 0 mm
23:12 18.7 °C 9.8 °C 1018.8 hPa NNE 1 km/h 1.9 km/h 56 % 0 mm
23:17 18.7 °C 9.7 °C 1018.8 hPa NNE 2.4 km/h 3.2 km/h 56 % 0 mm
23:22 18.5 °C 9.6 °C 1018.8 hPa Calm     56 % 0 mm
23:27 18.3 °C 9.7 °C 1018.8 hPa Calm     57 % 0 mm
23:32 18.1 °C 9.7 °C 1018.8 hPa Calm   1.6 km/h 58 % 0 mm
23:37 17.8 °C 9.7 °C 1018.8 hPa Calm     59 % 0 mm
23:42 17.5 °C 9.7 °C 1018.8 hPa Calm     60 % 0 mm
23:47 17.2 °C 9.6 °C 1018.8 hPa Calm     61 % 0 mm
23:52 17 °C 9.7 °C 1018.8 hPa Calm     62 % 0 mm
23:57 16.9 °C 9.8 °C 1018.8 hPa Calm     63 % 0 mm
Ararat Weather
Compliments of Weather Underground - 2.25 mb
Click here to send mail.


ABOUT

Live weather data from Ararat, Victoria, Australia, 3377
Data uploaded from Cumulus every 5 minutes to Weather Underground.
This site then downloads the raw data for formatting and display.
Metric and imperial data can be displayed. Graphs and historical data available.
Includes Sun and Moon times and rain image live from BOM.

Check out Ararat Weather on Facebook, Twitter and Google +

Help support ongoing costs by checking out the ads





Follow @AraratWeather